createdAt,value
2017-08-30T00:00:04.797Z,71.60
2017-08-30T00:02:31.884Z,71.40
2017-08-30T00:04:58.953Z,71.20
2017-08-30T00:07:26.047Z,71.00
2017-08-30T00:09:53.112Z,70.60
2017-08-30T00:12:20.196Z,70.10
2017-08-30T00:14:47.259Z,70.20
2017-08-30T00:17:14.347Z,70.10
2017-08-30T00:19:41.408Z,69.70
2017-08-30T00:22:08.500Z,69.60
2017-08-30T00:24:41.547Z,69.40
2017-08-30T00:27:08.637Z,69.50
2017-08-30T00:29:35.701Z,69.10
2017-08-30T00:32:02.764Z,69.40
2017-08-30T00:34:29.854Z,69.50
2017-08-30T00:36:56.920Z,69.00
2017-08-30T00:39:24.005Z,69.50
2017-08-30T00:41:51.140Z,69.20
2017-08-30T00:44:18.229Z,69.60
2017-08-30T00:46:45.293Z,68.90
2017-08-30T00:49:12.376Z,69.00
2017-08-30T00:51:39.441Z,68.60
2017-08-30T00:54:06.529Z,68.30
2017-08-30T00:56:33.596Z,68.40
2017-08-30T00:59:01.452Z,68.00
2017-08-30T01:01:29.281Z,67.60
2017-08-30T01:03:56.449Z,67.60
2017-08-30T01:06:23.517Z,68.00
2017-08-30T01:08:50.610Z,67.80
2017-08-30T01:11:17.678Z,68.80
2017-08-30T01:13:44.770Z,67.70
2017-08-30T01:16:11.829Z,67.60
2017-08-30T01:18:39.685Z,67.80
2017-08-30T01:21:07.527Z,67.60
2017-08-30T01:23:34.588Z,67.50
2017-08-30T01:26:01.676Z,67.80
2017-08-30T01:28:28.746Z,68.00
2017-08-30T01:30:55.837Z,68.10
2017-08-30T01:33:22.901Z,68.20
2017-08-30T01:35:49.988Z,68.70
2017-08-30T01:38:17.056Z,68.20
2017-08-30T01:40:44.144Z,68.30
2017-08-30T01:43:11.973Z,68.40
2017-08-30T01:45:39.061Z,68.30
2017-08-30T01:48:06.129Z,68.60
2017-08-30T01:50:33.216Z,68.60
2017-08-30T01:53:00.277Z,68.40
2017-08-30T01:55:27.365Z,68.90
2017-08-30T01:57:54.441Z,69.30
2017-08-30T02:00:21.537Z,69.60
2017-08-30T02:02:48.604Z,69.90
2017-08-30T02:05:15.693Z,70.00
2017-08-30T02:07:42.781Z,70.20
2017-08-30T02:10:09.845Z,70.10
2017-08-30T02:12:36.937Z,70.20
2017-08-30T02:15:04.000Z,70.90
2017-08-30T02:17:31.089Z,70.50
2017-08-30T02:19:58.917Z,70.60
2017-08-30T02:22:26.009Z,70.60
2017-08-30T02:24:53.852Z,70.80
2017-08-30T02:27:20.941Z,70.80
2017-08-30T02:29:48.005Z,71.30
2017-08-30T02:32:15.089Z,71.30
2017-08-30T02:34:42.153Z,71.20
2017-08-30T02:37:09.242Z,71.40
2017-08-30T02:39:36.312Z,71.00
2017-08-30T02:42:03.405Z,70.90
2017-08-30T02:44:30.473Z,70.60
2017-08-30T02:46:57.562Z,70.30
2017-08-30T02:49:24.625Z,70.50
2017-08-30T02:51:51.723Z,70.60
2017-08-30T02:54:18.797Z,71.10
2017-08-30T02:56:45.885Z,70.80
2017-08-30T02:59:12.951Z,70.60
2017-08-30T03:01:40.020Z,70.60
2017-08-30T03:04:07.108Z,70.70
2017-08-30T03:06:34.173Z,70.70
2017-08-30T03:09:01.270Z,70.30
2017-08-30T03:11:28.328Z,70.60
2017-08-30T03:13:55.412Z,70.80
2017-08-30T03:16:22.473Z,71.30
2017-08-30T03:18:49.566Z,71.70
2017-08-30T03:21:16.633Z,72.10
2017-08-30T03:23:43.725Z,72.10
2017-08-30T03:26:11.557Z,72.90
2017-08-30T03:28:38.645Z,72.40
2017-08-30T03:31:06.478Z,72.50
2017-08-30T03:33:33.568Z,72.50
2017-08-30T03:36:01.401Z,72.20
2017-08-30T03:38:28.493Z,72.20
2017-08-30T03:40:55.554Z,72.60
2017-08-30T03:43:22.649Z,72.60
2017-08-30T03:45:49.721Z,72.50
2017-08-30T03:48:16.809Z,72.80
2017-08-30T03:50:43.881Z,72.90
2017-08-30T03:53:10.949Z,73.00
2017-08-30T03:55:38.052Z,73.50
2017-08-30T03:58:05.117Z,73.20
2017-08-30T04:00:32.212Z,73.50
2017-08-30T04:03:00.045Z,73.70
2017-08-30T04:05:27.140Z,73.70
2017-08-30T04:07:54.201Z,73.90
2017-08-30T04:10:22.074Z,74.30
2017-08-30T04:12:49.144Z,74.80
2017-08-30T04:15:16.241Z,74.80
2017-08-30T04:17:44.073Z,74.70
2017-08-30T04:20:11.160Z,74.60
2017-08-30T04:22:38.989Z,74.60
2017-08-30T04:25:06.077Z,74.60
2017-08-30T04:27:33.146Z,74.60
2017-08-30T04:30:00.253Z,74.40
2017-08-30T04:32:27.328Z,74.20
2017-08-30T04:34:55.185Z,75.10
2017-08-30T04:37:22.255Z,75.00
2017-08-30T04:39:49.353Z,75.10
2017-08-30T04:42:18.040Z,74.90
2017-08-30T04:44:46.380Z,75.40
2017-08-30T04:47:16.022Z,75.00
2017-08-30T04:49:43.191Z,74.90
2017-08-30T04:52:10.286Z,75.20
2017-08-30T04:54:37.358Z,74.80
2017-08-30T04:57:04.448Z,75.20
2017-08-30T04:59:32.288Z,75.10
2017-08-30T05:01:59.394Z,74.90
2017-08-30T05:04:26.465Z,74.80
2017-08-30T05:06:53.565Z,75.00
2017-08-30T05:09:21.393Z,74.90
2017-08-30T05:11:48.489Z,74.90
2017-08-30T05:14:15.559Z,75.00
2017-08-30T05:16:42.624Z,75.70
2017-08-30T05:19:09.721Z,74.60
2017-08-30T05:21:36.785Z,74.90
2017-08-30T05:24:03.853Z,74.60
2017-08-30T05:26:30.945Z,74.40
2017-08-30T05:28:58.013Z,74.60
2017-08-30T05:31:25.109Z,75.00
2017-08-30T05:34:17.664Z,75.00
2017-08-30T05:36:44.757Z,74.30
2017-08-30T05:39:12.584Z,73.40
2017-08-30T05:41:39.668Z,73.40
2017-08-30T05:44:06.729Z,73.20
2017-08-30T05:46:33.825Z,72.80
2017-08-30T05:49:00.894Z,72.60
2017-08-30T05:51:27.965Z,72.80
2017-08-30T05:53:55.059Z,72.80
2017-08-30T05:56:22.130Z,72.90
2017-08-30T05:58:49.201Z,72.70
2017-08-30T06:01:16.295Z,72.30
2017-08-30T06:03:43.365Z,72.20
2017-08-30T06:06:10.461Z,72.00
2017-08-30T06:08:38.297Z,71.90
2017-08-30T06:11:05.398Z,71.80
2017-08-30T06:13:32.470Z,71.70
2017-08-30T06:15:59.537Z,71.80
2017-08-30T06:18:26.625Z,72.20
2017-08-30T06:20:54.457Z,71.70
2017-08-30T06:23:21.528Z,71.60
2017-08-30T06:25:49.389Z,70.70
2017-08-30T06:28:16.453Z,70.30
2017-08-30T06:30:43.540Z,70.00
2017-08-30T06:33:10.613Z,68.50
2017-08-30T06:35:37.709Z,68.80
2017-08-30T06:38:04.773Z,63.20
2017-08-30T06:40:31.863Z,61.40
2017-08-30T06:42:58.944Z,59.70
2017-08-30T06:45:26.774Z,58.10
2017-08-30T06:47:53.873Z,58.10
2017-08-30T06:50:20.938Z,54.80
2017-08-30T06:52:48.033Z,54.80
2017-08-30T06:55:15.103Z,53.40
2017-08-30T06:57:42.197Z,53.80
2017-08-30T07:00:09.265Z,52.00
2017-08-30T07:02:36.353Z,50.80
2017-08-30T07:05:03.421Z,51.70
2017-08-30T07:07:30.518Z,51.30
2017-08-30T07:09:57.595Z,50.40
2017-08-30T07:12:24.681Z,50.60
2017-08-30T07:14:51.746Z,50.90
2017-08-30T07:17:18.809Z,50.90
2017-08-30T07:19:45.897Z,50.60
2017-08-30T07:22:13.730Z,50.80
2017-08-30T07:24:40.817Z,50.80
2017-08-30T07:27:07.885Z,50.50
2017-08-30T07:29:34.976Z,50.70
2017-08-30T07:32:02.054Z,50.50
2017-08-30T07:34:29.916Z,49.50
2017-08-30T07:36:57.757Z,49.00
2017-08-30T07:39:24.853Z,49.00
2017-08-30T07:41:51.918Z,48.50
2017-08-30T07:44:19.007Z,48.80
2017-08-30T07:46:46.074Z,47.50
2017-08-30T07:49:13.141Z,48.00
2017-08-30T07:51:40.228Z,48.00
2017-08-30T07:54:07.294Z,47.40
2017-08-30T07:56:34.380Z,47.70
2017-08-30T07:59:01.449Z,47.80
2017-08-30T08:01:28.537Z,47.30
2017-08-30T08:03:55.604Z,47.00
2017-08-30T08:06:22.693Z,47.30
2017-08-30T08:08:49.757Z,46.70
2017-08-30T08:11:16.854Z,46.50
2017-08-30T08:13:44.689Z,46.40
2017-08-30T08:16:11.781Z,46.30
2017-08-30T08:18:39.613Z,45.70
2017-08-30T08:21:06.690Z,45.70
2017-08-30T08:23:33.782Z,45.40
2017-08-30T08:26:00.851Z,45.70
2017-08-30T08:28:27.941Z,46.00
2017-08-30T08:30:55.007Z,45.10
2017-08-30T08:33:22.100Z,45.50
2017-08-30T08:35:49.176Z,46.70
2017-08-30T08:38:16.275Z,46.70
2017-08-30T08:40:43.341Z,47.90
2017-08-30T08:43:10.438Z,47.20
2017-08-30T08:45:37.503Z,46.90
2017-08-30T08:48:04.594Z,46.60
2017-08-30T08:50:31.661Z,47.00
2017-08-30T08:52:58.758Z,46.90
2017-08-30T08:55:25.821Z,47.70
2017-08-30T08:57:52.885Z,47.40
2017-08-30T09:00:19.972Z,47.80
2017-08-30T09:02:47.810Z,48.10
2017-08-30T09:05:14.905Z,48.10
2017-08-30T09:07:41.973Z,48.40
2017-08-30T09:10:09.073Z,48.20
2017-08-30T09:12:36.904Z,49.40
2017-08-30T09:15:04.021Z,49.40
2017-08-30T09:17:31.101Z,47.70
2017-08-30T09:19:58.198Z,47.50
2017-08-30T09:22:25.267Z,47.40
2017-08-30T09:24:52.357Z,48.10
2017-08-30T09:27:19.424Z,47.10
2017-08-30T09:29:46.489Z,47.60
2017-08-30T09:32:13.589Z,47.10
2017-08-30T09:34:40.657Z,46.70
2017-08-30T09:37:07.754Z,46.50
2017-08-30T09:39:34.825Z,46.00
2017-08-30T09:42:01.917Z,46.50
2017-08-30T09:44:29.746Z,47.70
2017-08-30T09:46:56.845Z,47.00
2017-08-30T09:49:23.914Z,47.80
2017-08-30T09:51:51.000Z,46.20
2017-08-30T09:54:18.061Z,45.90
2017-08-30T09:56:45.149Z,46.00
2017-08-30T09:59:12.221Z,45.50
2017-08-30T10:01:39.321Z,45.50
2017-08-30T10:04:06.389Z,46.40
2017-08-30T10:06:33.453Z,45.90
2017-08-30T10:09:00.545Z,45.30
2017-08-30T10:11:27.617Z,46.00
2017-08-30T10:13:55.473Z,45.00
2017-08-30T10:16:22.533Z,45.00
2017-08-30T10:18:50.402Z,44.30
2017-08-30T10:21:18.233Z,43.80
2017-08-30T10:23:45.325Z,43.80
2017-08-30T10:26:13.157Z,44.80
2017-08-30T10:28:40.253Z,44.80
2017-08-30T10:31:07.316Z,44.30
2017-08-30T10:33:34.407Z,44.60
2017-08-30T10:36:01.477Z,43.00
2017-08-30T10:38:29.314Z,42.60
2017-08-30T10:40:56.400Z,42.40
2017-08-30T10:43:24.229Z,41.80
2017-08-30T10:45:51.317Z,41.80
2017-08-30T10:48:18.387Z,41.70
2017-08-30T10:50:45.481Z,40.60
2017-08-30T10:53:12.547Z,41.70
2017-08-30T10:55:40.405Z,41.70
2017-08-30T10:58:07.479Z,41.00
2017-08-30T11:00:35.337Z,40.50
2017-08-30T11:03:02.405Z,40.50
2017-08-30T11:05:29.501Z,40.90
2017-08-30T11:07:56.569Z,40.10
2017-08-30T11:10:24.441Z,41.10
2017-08-30T11:12:51.510Z,40.50
2017-08-30T11:15:18.605Z,39.20
2017-08-30T11:17:45.688Z,37.90
2017-08-30T11:20:13.538Z,39.00
2017-08-30T11:22:40.641Z,39.00
2017-08-30T11:25:07.714Z,38.00
2017-08-30T11:27:34.808Z,39.30
2017-08-30T11:30:02.649Z,38.50
2017-08-30T11:32:29.722Z,38.50
2017-08-30T11:34:56.822Z,38.30
2017-08-30T11:37:23.888Z,37.90
2017-08-30T11:39:50.962Z,37.00
2017-08-30T11:42:18.829Z,37.50
2017-08-30T11:44:45.901Z,37.50
2017-08-30T11:47:12.969Z,36.30
2017-08-30T11:49:40.061Z,34.80
2017-08-30T11:52:07.134Z,35.60
2017-08-30T11:54:34.225Z,35.40
2017-08-30T11:57:01.357Z,36.40
2017-08-30T11:59:28.425Z,35.50
2017-08-30T12:01:55.518Z,34.60
2017-08-30T12:04:23.357Z,35.10
2017-08-30T12:06:50.445Z,35.10
2017-08-30T12:09:17.510Z,34.60
2017-08-30T12:11:44.572Z,35.20
2017-08-30T12:14:11.669Z,34.90
2017-08-30T12:16:38.742Z,35.20
2017-08-30T12:19:05.835Z,35.40
2017-08-30T12:21:32.903Z,33.90
2017-08-30T12:23:59.970Z,34.70
2017-08-30T12:26:27.065Z,34.10
2017-08-30T12:28:54.129Z,34.30
2017-08-30T12:31:21.193Z,34.30
2017-08-30T12:33:48.298Z,34.60
2017-08-30T12:36:15.369Z,34.60
2017-08-30T12:38:48.160Z,35.00
2017-08-30T12:41:15.220Z,35.00
2017-08-30T12:43:42.289Z,34.10
2017-08-30T12:46:09.381Z,35.00
2017-08-30T12:48:36.452Z,35.30
2017-08-30T12:51:03.545Z,34.40
2017-08-30T12:53:30.614Z,34.70
2017-08-30T12:55:57.676Z,35.20
2017-08-30T12:58:24.761Z,34.10
2017-08-30T13:00:51.825Z,34.30
2017-08-30T13:03:19.680Z,34.30
2017-08-30T13:05:46.746Z,34.00
2017-08-30T13:08:13.810Z,34.50
2017-08-30T13:10:40.906Z,34.70
2017-08-30T13:13:07.990Z,34.20
2017-08-30T13:15:35.085Z,35.00
2017-08-30T13:18:02.153Z,34.20
2017-08-30T13:20:29.225Z,34.50
2017-08-30T13:22:56.326Z,34.90
2017-08-30T13:25:23.397Z,34.10
2017-08-30T13:27:50.469Z,34.80
2017-08-30T13:30:18.337Z,34.30
2017-08-30T13:32:45.405Z,33.90
2017-08-30T13:35:13.244Z,33.30
2017-08-30T13:37:40.333Z,33.30
2017-08-30T13:40:07.401Z,33.00
2017-08-30T13:42:34.474Z,33.20
2017-08-30T13:45:01.573Z,33.90
2017-08-30T13:47:28.642Z,33.30
2017-08-30T13:49:55.706Z,33.80
2017-08-30T13:52:22.800Z,33.70
2017-08-30T13:54:50.642Z,34.50
2017-08-30T13:57:17.737Z,34.50
2017-08-30T13:59:44.801Z,33.70
2017-08-30T14:02:11.869Z,34.10
2017-08-30T14:04:38.962Z,33.40
2017-08-30T14:07:06.034Z,34.30
2017-08-30T14:09:33.126Z,34.40
2017-08-30T14:12:00.196Z,33.90
2017-08-30T14:14:27.265Z,34.10
2017-08-30T14:16:54.361Z,34.40
2017-08-30T14:19:21.424Z,34.00
2017-08-30T14:21:48.497Z,34.00
2017-08-30T14:24:15.592Z,34.40
2017-08-30T14:26:42.661Z,35.10
2017-08-30T14:29:09.733Z,34.30
2017-08-30T14:31:36.843Z,35.50
2017-08-30T14:34:03.909Z,35.50
2017-08-30T14:36:30.977Z,34.60
2017-08-30T14:38:58.072Z,35.90
2017-08-30T14:41:25.141Z,36.50
2017-08-30T14:43:52.213Z,36.50
2017-08-30T14:46:19.312Z,36.70
2017-08-30T14:48:46.382Z,36.90
2017-08-30T14:51:13.472Z,37.10
2017-08-30T14:53:41.311Z,38.60
2017-08-30T14:56:08.385Z,37.90
2017-08-30T14:58:36.241Z,38.90
2017-08-30T15:01:03.309Z,38.20
2017-08-30T15:03:31.180Z,38.50
2017-08-30T15:05:59.009Z,38.40
2017-08-30T15:08:26.089Z,38.40
2017-08-30T15:10:53.945Z,39.10
2017-08-30T15:13:21.009Z,39.10
2017-08-30T15:15:48.101Z,39.00
2017-08-30T15:18:15.169Z,39.50
2017-08-30T15:20:42.241Z,39.30
2017-08-30T15:23:09.341Z,39.30
2017-08-30T15:25:36.405Z,39.80
2017-08-30T15:28:03.465Z,38.80
2017-08-30T15:30:30.552Z,38.70
2017-08-30T15:32:57.630Z,38.80
2017-08-30T15:35:24.696Z,39.10
2017-08-30T15:37:51.788Z,39.10
2017-08-30T15:40:19.618Z,39.60
2017-08-30T15:42:46.689Z,39.60
2017-08-30T15:45:13.784Z,39.80
2017-08-30T15:47:40.853Z,39.30
2017-08-30T15:50:07.921Z,39.40
2017-08-30T15:52:35.008Z,39.70
2017-08-30T15:55:02.072Z,39.80
2017-08-30T15:57:29.167Z,39.70
2017-08-30T15:59:56.233Z,39.90
2017-08-30T16:02:23.299Z,39.90
2017-08-30T16:04:50.393Z,40.70
2017-08-30T16:07:17.465Z,39.90
2017-08-30T16:09:44.557Z,40.10
2017-08-30T16:12:11.625Z,40.60
2017-08-30T16:14:38.694Z,40.40
2017-08-30T16:17:05.789Z,40.40
2017-08-30T16:19:32.867Z,40.20
2017-08-30T16:21:59.941Z,40.60
2017-08-30T16:24:27.028Z,40.60
2017-08-30T16:26:54.098Z,41.20
2017-08-30T16:29:21.165Z,41.20
2017-08-30T16:31:48.269Z,41.50
2017-08-30T16:34:16.106Z,42.00
2017-08-30T16:36:43.196Z,42.00
2017-08-30T16:39:10.270Z,42.90
2017-08-30T16:41:38.646Z,43.20
2017-08-30T16:44:07.233Z,43.70
2017-08-30T16:46:35.626Z,43.70
2017-08-30T16:49:04.352Z,44.00
2017-08-30T16:51:33.655Z,45.90
2017-08-30T16:54:01.980Z,45.80
2017-08-30T16:56:29.193Z,47.00
2017-08-30T16:58:57.303Z,49.40
2017-08-30T17:01:25.266Z,50.70
2017-08-30T17:03:52.827Z,49.70
2017-08-30T17:06:21.960Z,50.60
2017-08-30T17:08:49.062Z,50.60
2017-08-30T17:11:16.130Z,51.30
2017-08-30T17:13:44.496Z,52.60
2017-08-30T17:16:13.082Z,52.70
2017-08-30T17:18:40.269Z,53.30
2017-08-30T17:21:08.748Z,53.90
2017-08-30T17:23:35.996Z,54.50
2017-08-30T17:26:04.278Z,55.10
2017-08-30T17:28:32.150Z,55.60
2017-08-30T17:31:00.727Z,55.60
2017-08-30T17:33:29.173Z,56.50
2017-08-30T17:35:56.333Z,56.60
2017-08-30T17:38:24.916Z,56.90
2017-08-30T17:40:51.985Z,56.60
2017-08-30T17:43:19.169Z,56.30
2017-08-30T17:45:46.247Z,56.20
2017-08-30T17:48:14.837Z,56.10
2017-08-30T17:50:43.475Z,57.00
2017-08-30T17:53:10.613Z,57.40
2017-08-30T17:55:39.666Z,57.00
2017-08-30T17:58:08.352Z,56.90
2017-08-30T18:00:35.609Z,57.20
2017-08-30T18:03:03.424Z,57.30
2017-08-30T18:05:31.788Z,57.60
2017-08-30T18:07:58.931Z,57.70
2017-08-30T18:10:27.104Z,57.80
2017-08-30T18:12:55.077Z,61.30
2017-08-30T18:15:22.178Z,61.30
2017-08-30T18:17:49.249Z,64.30
2017-08-30T18:20:17.889Z,65.20
2017-08-30T18:22:45.834Z,66.60
2017-08-30T18:25:12.905Z,66.60
2017-08-30T18:27:39.998Z,65.90
2017-08-30T18:30:07.070Z,66.60
2017-08-30T18:32:34.162Z,66.00
2017-08-30T18:35:01.237Z,68.00
2017-08-30T18:37:28.314Z,67.10
2017-08-30T18:39:55.409Z,67.10
2017-08-30T18:42:22.512Z,68.50
2017-08-30T18:44:49.592Z,64.00
2017-08-30T18:47:17.464Z,65.20
2017-08-30T18:49:45.355Z,66.10
2017-08-30T18:52:12.526Z,66.00
2017-08-30T18:54:39.658Z,65.90
2017-08-30T18:57:06.748Z,66.00
2017-08-30T18:59:33.852Z,65.20
2017-08-30T19:02:00.969Z,64.80
2017-08-30T19:04:28.045Z,64.80
2017-08-30T19:06:55.152Z,66.30
2017-08-30T19:09:22.265Z,66.80
2017-08-30T19:11:49.341Z,68.00
2017-08-30T19:14:16.420Z,68.20
2017-08-30T19:16:43.567Z,68.50
2017-08-30T19:19:11.081Z,67.70
2017-08-30T19:21:38.173Z,68.00
2017-08-30T19:24:05.269Z,68.20
2017-08-30T19:26:32.345Z,68.80
2017-08-30T19:28:59.445Z,67.90
2017-08-30T19:31:26.528Z,70.40
2017-08-30T19:33:53.612Z,70.80
2017-08-30T19:36:20.744Z,73.50
2017-08-30T19:38:47.829Z,75.80
2017-08-30T19:41:14.946Z,76.80
2017-08-30T19:43:42.046Z,78.00
2017-08-30T19:46:09.160Z,77.50
2017-08-30T19:48:36.285Z,74.10
2017-08-30T19:51:03.373Z,75.60
2017-08-30T19:53:30.456Z,73.40
2017-08-30T19:55:57.568Z,71.70
2017-08-30T19:58:24.649Z,73.80
2017-08-30T20:00:51.737Z,73.20
2017-08-30T20:03:18.862Z,74.50
2017-08-30T20:05:45.962Z,74.00
2017-08-30T20:08:13.045Z,74.30
2017-08-30T20:10:40.145Z,74.30
2017-08-30T20:13:07.213Z,76.70
2017-08-30T20:15:34.276Z,76.20
2017-08-30T20:18:01.387Z,77.20
2017-08-30T20:20:28.465Z,77.30
2017-08-30T20:22:55.561Z,76.70
2017-08-30T20:25:22.625Z,77.60
2017-08-30T20:27:49.688Z,77.70
2017-08-30T20:30:16.781Z,77.00
2017-08-30T20:32:43.848Z,74.70
2017-08-30T20:35:10.914Z,73.80
2017-08-30T20:37:38.134Z,73.20
2017-08-30T20:40:05.201Z,73.60
2017-08-30T20:42:32.273Z,67.90
2017-08-30T20:45:00.133Z,71.60
2017-08-30T20:47:27.197Z,70.90
2017-08-30T20:49:55.025Z,71.20
2017-08-30T20:52:22.253Z,71.20
2017-08-30T20:54:49.312Z,71.50
2017-08-30T20:57:16.400Z,71.70
2017-08-30T20:59:43.636Z,71.80
2017-08-30T21:02:10.705Z,70.00
2017-08-30T21:04:37.796Z,70.70
2017-08-30T21:07:04.856Z,71.30
2017-08-30T21:09:31.956Z,72.50
2017-08-30T21:11:59.789Z,71.30
2017-08-30T21:14:26.857Z,71.30
2017-08-30T21:16:53.948Z,71.00
2017-08-30T21:19:21.099Z,72.30
2017-08-30T21:21:48.185Z,72.80
2017-08-30T21:24:15.250Z,73.00
2017-08-30T21:26:42.321Z,71.40
2017-08-30T21:29:09.410Z,71.00
2017-08-30T21:31:36.477Z,72.50
2017-08-30T21:34:03.569Z,69.80
2017-08-30T21:36:30.639Z,71.60
2017-08-30T21:38:57.706Z,69.30
2017-08-30T21:41:24.797Z,70.30
2017-08-30T21:43:51.860Z,70.20
2017-08-30T21:46:18.955Z,70.40
2017-08-30T21:48:46.017Z,68.90
2017-08-30T21:51:13.083Z,70.30
2017-08-30T21:53:40.180Z,69.60
2017-08-30T21:56:07.242Z,70.00
2017-08-30T21:58:34.332Z,70.40
2017-08-30T22:01:01.402Z,70.00
2017-08-30T22:03:28.468Z,69.70
2017-08-30T22:05:55.552Z,70.20
2017-08-30T22:08:22.621Z,70.60
2017-08-30T22:10:49.725Z,70.50
2017-08-30T22:13:16.798Z,70.60
2017-08-30T22:15:43.875Z,70.30
2017-08-30T22:18:11.743Z,70.80
2017-08-30T22:20:39.577Z,70.60
2017-08-30T22:23:06.665Z,70.50
2017-08-30T22:25:33.732Z,71.10
2017-08-30T22:28:00.820Z,71.40
2017-08-30T22:30:27.887Z,71.00
2017-08-30T22:32:54.990Z,70.80
2017-08-30T22:35:22.097Z,70.80
2017-08-30T22:37:49.167Z,70.70
2017-08-30T22:40:16.252Z,70.90
2017-08-30T22:42:43.322Z,71.50
2017-08-30T22:45:10.414Z,71.20
2017-08-30T22:47:37.484Z,71.40
2017-08-30T22:50:04.549Z,71.80
2017-08-30T22:52:31.649Z,71.80
2017-08-30T22:54:58.726Z,71.90
2017-08-30T22:57:25.812Z,71.50
2017-08-30T22:59:52.881Z,71.10
2017-08-30T23:02:19.972Z,71.30
2017-08-30T23:04:47.037Z,71.90
2017-08-30T23:07:14.169Z,71.50
2017-08-30T23:09:41.256Z,71.50
2017-08-30T23:12:08.321Z,71.10
2017-08-30T23:14:35.413Z,71.30
2017-08-30T23:17:02.489Z,71.00
2017-08-30T23:19:29.577Z,71.10
2017-08-30T23:21:57.409Z,70.40
2017-08-30T23:24:24.468Z,70.40
2017-08-30T23:26:51.556Z,69.60
2017-08-30T23:29:18.621Z,69.40
2017-08-30T23:31:45.709Z,69.20
2017-08-30T23:34:12.773Z,68.90
2017-08-30T23:36:39.861Z,69.00
2017-08-30T23:39:06.929Z,68.60
2017-08-30T23:41:33.993Z,68.50
2017-08-30T23:44:01.080Z,68.60
2017-08-30T23:46:28.913Z,68.50
2017-08-30T23:48:56.009Z,68.40
2017-08-30T23:51:23.081Z,69.10
2017-08-30T23:53:50.174Z,68.70
2017-08-30T23:56:17.241Z,68.70
2017-08-30T23:58:45.069Z,68.90
